Latest Weather Observations for Millendon (Swan Valley)

IDW60901

Issued at 2:21 pm WST Tuesday 19 January 2021 (issued every 10 minutes, with the page automatically refreshed every 10 minutes)

About weather observations | Map of Perth area stations | Latest observations for Perth area | Other Formats
Station Details ID: 009281 Name: MILLENDON (SWAN VALLEY) Lat: -31.81 Lon: 116.02 Height: 15.62 m
Data from the previous 72 hours. | See also: Recent months at Millendon (Swan Valley)
Date/Time
WST
Temp
°C
App
Temp
°C
Dew
Point
°C
Rel
Hum
%
Delta-T
°C
Wind Press
QNH
hPa
Press
MSL
hPa
Rain since
9am
mm
Dir  Spd
km/h
Gust
km/h
Spd
kts
Gust
kts
19/02:00pm 35.1 34.0 14.4 29 12.8 WSW 13 20 7 11 1007.8 1007.7 0.0
19/01:30pm 35.1 33.3 14.4 29 12.8 WSW 17 28 9 15 1007.8 1007.7 0.0
19/01:00pm 36.8 35.2 11.6 22 15.1 WNW 11 19 6 10 1007.7 1007.6 0.0
19/12:30pm 34.0 31.0 11.8 26 13.1 NW 19 46 10 25 1008.5 1008.4 0.0
19/12:00pm 36.4 33.2 9.8 20 15.5 NNW 17 28 9 15 1008.4 1008.3 0.0
19/11:30am 36.7 33.0 10.1 20 15.5 NW 20 30 11 16 1008.8 1008.7 0.0
19/11:00am 35.9 32.8 10.2 21 15.0 NNW 17 28 9 15 1009.3 1009.2 0.0
19/10:30am 35.1 32.4 10.2 22 14.5 N 15 24 8 13 1009.6 1009.5 0.0
19/10:00am 34.4 31.9 9.6 22 14.2 N 13 22 7 12 1009.8 1009.7 0.0
19/09:30am 33.1 31.0 9.8 24 13.3 N 11 19 6 10 1010.1 1010.0 0.0
19/09:00am 33.5 31.6 8.9 22 13.9 NNE 9 19 5 10 1010.2 1010.1 0.0
19/08:30am 32.7 30.2 8.2 22 13.6 NE 11 24 6 13 1010.4 1010.3 0.0
19/08:00am 31.2 28.4 7.0 22 13.1 NNE 11 19 6 10 1010.5 1010.4 0.0
19/07:30am 30.6 28.9 8.3 25 12.3 NNE 7 13 4 7 1010.4 1010.3 0.0
19/07:00am 29.2 27.4 9.3 29 11.1 N 9 17 5 9 1010.3 1010.2 0.0
19/06:30am 27.2 26.6 10.4 35 9.4 N 4 15 2 8 1010.1 1010.0 0.0
19/06:00am 25.5 25.0 12.0 43 7.7 SW 6 9 3 5 1010.0 1009.9 0.0
19/05:30am 26.1 26.0 12.2 42 8.0 SW 4 7 2 4 1009.8 1009.7 0.0
19/05:00am 26.2 26.8 11.9 41 8.2 CALM 0 6 0 3 1009.8 1009.7 0.0
19/04:30am 28.2 27.9 11.3 35 9.7 NE 4 11 2 6 1009.5 1009.4 0.0
19/04:00am 28.1 27.3 11.6 36 9.5 NE 7 19 4 10 1009.5 1009.4 0.0
19/03:30am 27.4 27.3 13.4 42 8.3 NNE 6 11 3 6 1009.9 1009.8 0.0
19/03:00am 27.2 27.1 13.2 42 8.2 N 6 9 3 5 1009.9 1009.8 0.0
19/02:30am 25.4 25.8 13.6 48 6.9 NNE 4 7 2 4 1010.1 1010.0 0.0
19/02:00am 25.4 25.6 12.9 45 7.3 SSE 4 7 2 4 1009.9 1009.8 0.0
19/01:30am 26.4 26.1 12.8 43 7.9 NE 6 9 3 5 1010.4 1010.3 0.0
19/01:00am 27.4 26.8 11.8 38 9.0 ENE 6 13 3 7 1010.8 1010.7 0.0
19/12:30am 27.6 25.9 11.2 36 9.4 NE 11 24 6 13 1010.8 1010.7 0.0
19/12:00am 27.5 26.6 11.5 37 9.2 NE 7 15 4 8 1011.1 1011.0 0.0
 
Date/Time
WST
Temp
°C
App
Temp
°C
Dew
Point
°C
Rel
Hum
%
Delta-T
°C
Wind Press
QNH
hPa
Press
MSL
hPa
Rain since
9am
mm
Dir  Spd
km/h
Gust
km/h
Spd
kts
Gust
kts
18/11:30pm 27.6 26.3 11.2 36 9.4 NNE 9 24 5 13 1011.2 1011.1 0.0
18/11:00pm 27.6 25.8 10.8 35 9.5 NE 11 24 6 13 1011.4 1011.3 0.0
18/10:30pm 27.3 25.6 11.3 37 9.1 NNE 11 22 6 12 1011.4 1011.3 0.0
18/10:00pm 26.9 25.3 11.4 38 8.8 N 11 17 6 9 1011.7 1011.6 0.0
18/09:30pm 27.1 25.1 10.3 35 9.4 NNE 11 19 6 10 1011.9 1011.8 0.0
18/09:00pm 27.0 25.9 10.7 36 9.2 NNE 7 15 4 8 1012.0 1011.9 0.0
18/08:30pm 26.8 26.3 12.5 41 8.3 NNE 7 13 4 7 1011.9 1011.8 0.0
18/08:00pm 26.3 26.7 14.7 48 7.0 NE 6 15 3 8 1011.9 1011.8 0.0
18/07:30pm 26.0 26.0 15.1 51 6.6 NNE 9 15 5 8 1011.9 1011.8 0.0
18/07:00pm 26.5 24.9 13.9 45 7.5 NNE 15 28 8 15 1012.0 1011.9 0.0
18/06:30pm 27.5 25.4 12.3 39 8.8 NNE 15 24 8 13 1012.3 1012.2 0.0
18/06:00pm 27.5 26.6 14.8 45 7.7 N 13 20 7 11 1012.0 1011.9 0.0
18/05:30pm 27.7 26.9 15.0 45 7.7 N 13 20 7 11 1011.5 1011.4 0.0
18/05:00pm 30.2 28.5 13.5 36 10.0 N 15 22 8 12 1011.5 1011.4 0.0
18/04:30pm 31.6 29.9 12.4 31 11.4 N 13 19 7 10 1011.7 1011.6 0.0
18/04:00pm 31.5 30.7 12.8 32 11.1 ENE 9 15 5 8 1011.5 1011.4 0.0
18/03:30pm 31.8 30.5 12.6 31 11.4 NNE 11 22 6 12 1011.7 1011.6 0.0
18/03:00pm 33.1 31.6 13.2 30 12.0 NNE 13 24 7 13 1011.4 1011.3 0.0
18/02:30pm 31.9 29.9 12.7 31 11.4 NNE 15 30 8 16 1011.8 1011.7 0.0
18/02:00pm 31.8 30.3 13.1 32 11.2 NNE 13 24 7 13 1011.9 1011.8 0.0
18/01:30pm 31.4 29.8 12.7 32 11.1 NE 13 24 7 13 1012.2 1012.1 0.0
18/01:00pm 30.5 28.9 12.9 34 10.4 NE 13 26 7 14 1012.8 1012.7 0.0
18/12:30pm 28.3 27.7 12.2 37 9.4 NNE 7 19 4 10 1013.4 1013.3 0.0
18/12:00pm 27.5 25.7 10.7 35 9.5 NE 11 24 6 13 1013.4 1013.3 0.0
18/11:30am 28.0 25.1 8.3 29 10.7 NNE 13 22 7 12 1013.8 1013.7 0.0
18/11:00am 28.3 24.9 5.8 24 11.7 NNE 13 30 7 16 1014.0 1013.9 0.0
18/10:30am 28.5 25.2 4.7 22 12.2 NNE 11 24 6 13 1014.2 1014.1 0.0
18/10:00am 28.9 24.9 5.1 22 12.3 N 15 22 8 12 1014.4 1014.3 0.0
18/09:30am 28.6 24.5 4.2 21 12.4 NE 15 32 8 17 1014.2 1014.1 0.0
18/09:00am 28.3 23.7 3.9 21 12.3 NE 17 33 9 18 1014.1 1014.0 0.0
18/08:30am 27.6 22.8 2.6 20 12.3 NE 17 30 9 16 1014.5 1014.4 0.0
18/08:00am 27.4 22.6 2.5 20 12.2 NNE 17 32 9 17 1014.8 1014.7 0.0
18/07:30am 27.2 22.3 2.3 20 12.1 NE 17 41 9 22 1014.7 1014.6 0.0
18/07:00am 26.7 23.3 1.9 20 12.0 NNE 9 17 5 9 1015.1 1015.0 0.0
18/06:30am 26.1 23.2 1.4 20 11.8 NE 6 11 3 6 1015.1 1015.0 0.0
18/06:00am 25.8 22.9 1.2 20 11.6 N 6 11 3 6 1014.7 1014.6 0.0
18/05:30am 25.9 22.9 0.5 19 11.9 NE 6 19 3 10 1014.2 1014.1 0.0
18/05:00am 25.9 22.8 1.2 20 11.7 NW 7 13 4 7 1014.0 1013.9 0.0
18/04:30am 26.4 23.7 0.2 18 12.2 NNE 4 9 2 5 1012.9 1012.8 0.0
18/04:00am 26.5 23.2 0.3 18 12.3 NNE 7 20 4 11 1012.3 1012.2 0.0
18/03:30am 26.6 23.5 0.4 18 12.3 E 6 19 3 10 1012.2 1012.1 0.0
18/03:00am 27.1 23.4 0.0 17 12.7 ENE 9 22 5 12 1011.9 1011.8 0.0
18/02:30am 27.5 23.9 0.3 17 12.8 ENE 9 24 5 13 1012.1 1012.0 0.0
18/02:00am 28.5 24.5 0.3 16 13.4 ENE 11 30 6 16 1012.1 1012.0 0.0
18/01:30am 29.4 24.2 0.1 15 14.0 ENE 17 32 9 17 1012.0 1011.9 0.0
18/01:00am 29.4 25.3 0.1 15 14.0 ENE 11 28 6 15 1012.3 1012.2 0.0
18/12:30am 29.8 25.8 0.4 15 14.1 ENE 11 24 6 13 1012.1 1012.0 0.0
18/12:00am 29.7 25.7 0.3 15 14.1 E 11 20 6 11 1012.5 1012.4 0.0
 
Date/Time
WST
Temp
°C
App
Temp
°C
Dew
Point
°C
Rel
Hum
%
Delta-T
°C
Wind Press
QNH
hPa
Press
MSL
hPa
Rain since
9am
mm
Dir  Spd
km/h
Gust
km/h
Spd
kts
Gust
kts
17/11:30pm 29.8 25.9 1.3 16 13.9 E 11 26 6 14 1012.6 1012.5 0.0
17/11:00pm 30.0 26.0 0.6 15 14.2 E 11 22 6 12 1012.7 1012.6 0.0
17/10:30pm 29.8 25.9 1.3 16 13.9 E 11 20 6 11 1012.8 1012.7 0.0
17/10:00pm 29.1 26.2 2.4 18 13.2 ESE 7 15 4 8 1012.9 1012.8 0.0
17/09:30pm 28.9 26.3 3.0 19 12.9 ESE 6 9 3 5 1013.0 1012.9 0.0
17/09:00pm 29.4 26.7 2.6 18 13.3 E 6 13 3 7 1013.0 1012.9 0.0
17/08:30pm 29.3 26.7 3.3 19 13.1 SE 6 9 3 5 1012.9 1012.8 0.0
17/08:00pm 29.1 27.6 5.2 22 12.4 SE 2 4 1 2 1013.1 1013.0 0.0
17/07:30pm 30.8 29.1 3.8 18 13.8 SE 2 6 1 3 1012.8 1012.7 0.0
17/07:00pm 32.2 30.1 4.1 17 14.6 E 4 11 2 6 1012.7 1012.6 0.0
17/06:30pm 33.0 30.5 3.9 16 15.1 E 6 13 3 7 1012.5 1012.4 0.0
17/06:00pm 34.0 30.9 3.7 15 15.8 ENE 9 17 5 9 1012.4 1012.3 0.0
17/05:30pm 34.6 31.4 3.2 14 16.3 ENE 9 20 5 11 1012.1 1012.0 0.0
17/05:00pm 34.8 31.3 3.4 14 16.4 E 11 22 6 12 1012.2 1012.1 0.0
17/04:30pm 35.3 32.0 4.8 15 16.3 ESE 11 22 6 12 1012.3 1012.2 0.0
17/04:00pm 35.4 32.7 5.8 16 16.1 E 9 20 5 11 1012.6 1012.5 0.0
17/03:30pm 35.0 31.9 5.4 16 15.9 ENE 11 22 6 12 1012.9 1012.8 0.0
17/03:00pm 35.3 32.6 7.4 18 15.5 ESE 11 24 6 13 1013.1 1013.0 0.0
17/02:30pm 34.6 31.4 6.8 18 15.3 E 13 26 7 14 1013.4 1013.3 0.0
17/02:00pm 34.3 31.0 6.6 18 15.1 ENE 13 24 7 13 1013.7 1013.6 0.0
17/01:30pm 34.6 31.8 6.8 18 15.3 ENE 11 26 6 14 1014.2 1014.1 0.0
17/01:00pm 33.9 30.7 7.0 19 14.8 ENE 13 30 7 16 1014.6 1014.5 0.0
17/12:30pm 32.9 29.2 6.2 19 14.4 E 15 33 8 18 1014.8 1014.7 0.0
17/12:00pm 33.2 29.3 7.2 20 14.3 E 17 33 9 18 1015.2 1015.1 0.0
17/11:30am 31.8 27.3 6.1 20 13.8 ENE 19 35 10 19 1015.7 1015.6 0.0
17/11:00am 31.5 28.0 7.2 22 13.2 NE 15 35 8 19 1016.0 1015.9 0.0
17/10:30am 29.9 26.1 5.9 22 12.7 ENE 15 32 8 17 1016.3 1016.2 0.0
17/10:00am 28.9 25.8 5.7 23 12.1 NE 11 33 6 18 1016.4 1016.3 0.0
17/09:30am 28.1 24.3 5.6 24 11.7 ENE 15 43 8 23 1016.3 1016.2 0.0
17/09:00am 27.3 23.8 5.6 25 11.2 NE 13 30 7 16 1016.5 1016.4 0.0
17/08:30am 25.9 21.1 5.5 27 10.4 ENE 20 43 11 23 1016.6 1016.5 0.0
17/08:00am 25.0 20.1 5.2 28 10.0 ENE 20 43 11 23 1016.3 1016.2 0.0
17/07:30am 23.9 19.3 5.8 31 9.2 ENE 19 35 10 19 1016.7 1016.6 0.0
17/07:00am 22.3 18.9 6.1 35 8.2 ENE 13 28 7 15 1016.5 1016.4 0.0
17/06:30am 20.5 17.3 6.8 41 6.9 ENE 13 28 7 15 1016.5 1016.4 0.0
17/06:00am 19.7 16.9 7.1 44 6.4 E 11 28 6 15 1016.4 1016.3 0.0
17/05:30am 19.3 16.2 7.4 46 6.1 E 13 33 7 18 1016.1 1016.0 0.0
17/05:00am 19.5 16.1 7.6 46 6.1 E 15 32 8 17 1015.6 1015.5 0.0
17/04:30am 19.6 15.8 7.7 46 6.1 E 17 33 9 18 1015.0 1014.9 0.0
17/04:00am 19.8 16.1 7.9 46 6.1 E 17 43 9 23 1014.8 1014.7 0.0
17/03:30am 20.2 16.5 7.9 45 6.4 E 17 37 9 20 1014.7 1014.6 0.0
17/03:00am 20.4 17.5 8.1 45 6.4 E 13 32 7 17 1014.6 1014.5 0.0
17/02:30am 20.8 17.5 8.1 44 6.6 ESE 15 46 8 25 1014.4 1014.3 0.0
17/02:00am 21.3 18.0 7.9 42 7.0 E 15 33 8 18 1014.6 1014.5 0.0
17/01:30am 21.8 18.9 8.0 41 7.2 ESE 13 26 7 14 1014.2 1014.1 0.0
17/01:00am 22.7 20.1 7.7 38 7.8 SE 11 22 6 12 1014.7 1014.6 0.0
17/12:30am 23.6 20.8 6.8 34 8.7 SE 11 26 6 14 1014.8 1014.7 0.0
17/12:00am 24.5 21.6 6.3 31 9.4 ESE 11 26 6 14 1014.6 1014.5 0.0
 
Date/Time
WST
Temp
°C
App
Temp
°C
Dew
Point
°C
Rel
Hum
%
Delta-T
°C
Wind Press
QNH
hPa
Press
MSL
hPa
Rain since
9am
mm
Dir  Spd
km/h
Gust
km/h
Spd
kts
Gust
kts
16/11:30pm 25.9 21.6 3.2 23 11.2 ESE 15 32 8 17 1014.4 1014.3 0.0
16/11:00pm 26.9 22.6 1.3 19 12.2 E 13 30 7 16 1014.0 1013.9 0.0
16/10:30pm 27.4 23.1 1.0 18 12.6 E 13 26 7 14 1013.9 1013.8 0.0
16/10:00pm 27.9 24.2 2.2 19 12.6 E 11 24 6 13 1013.7 1013.6 0.0
16/09:30pm 28.2 25.0 3.1 20 12.5 E 9 24 5 13 1013.5 1013.4 0.0
16/09:00pm 28.6 25.2 4.2 21 12.4 E 11 24 6 13 1013.3 1013.2 0.0
16/08:30pm 29.3 26.4 4.7 21 12.7 E 9 24 5 13 1012.9 1012.8 0.0
16/08:00pm 30.0 26.8 5.3 21 12.9 E 11 24 6 13 1012.6 1012.5 0.0
16/07:30pm 30.6 27.6 5.8 21 13.1 ESE 11 24 6 13 1012.3 1012.2 0.0
16/07:00pm 31.3 28.0 6.4 21 13.4 E 13 26 7 14 1012.1 1012.0 0.0
16/06:30pm 32.1 29.5 7.7 22 13.4 E 11 32 6 17 1012.1 1012.0 0.0
16/06:00pm 32.6 29.7 8.1 22 13.6 E 13 26 7 14 1011.9 1011.8 0.0
16/05:30pm 33.2 30.8 8.6 22 13.8 E 11 24 6 13 1011.9 1011.8 0.0
16/05:00pm 33.4 31.0 8.8 22 13.9 ENE 11 28 6 15 1011.9 1011.8 0.0
16/04:30pm 33.3 30.3 9.4 23 13.6 E 15 28 8 15 1012.0 1011.9 0.0
16/04:00pm 33.8 31.5 10.4 24 13.6 E 13 28 7 15 1012.2 1012.1 0.0
16/03:30pm 33.3 30.9 10.0 24 13.4 ENE 13 26 7 14 1012.5 1012.4 0.0
16/03:00pm 33.0 29.9 10.4 25 13.0 NE 17 32 9 17 1012.9 1012.8 0.0
16/02:30pm 32.2 29.1 10.3 26 12.6 ENE 17 33 9 18 1013.3 1013.2 0.0

Latest Capital City Observations: Canberra | Sydney | Melbourne | Brisbane | Adelaide | Perth | Hobart | Darwin

Other formats

Comma delimited format used in spreadsheet applications
http://www.bom.gov.au/fwo/IDW60901/IDW60901.94795.axf

JavaScript Object Notation format (JSON) in row-major order
http://www.bom.gov.au/fwo/IDW60901/IDW60901.94795.json

Data quality

Most of these data are generated automatically and are frequently updated. Quality checks on data are not normally performed. It is possible for incorrect values to appear. Refer to information at About Latest Weather Observations and please check the disclaimer before using these data.